Strona główna
METAR-TAF:

METAR-TAF

Lotnisko :

La Seu d’Urgell, Hiszpania

Szerokość geograficzna: 42-20-29N, Długość geograficzna: 001-24-17E, wysokość: 802 m

METAR: brakujący

czas: 08:20 (07:20 UTC)

Prognoza

Raport powstał 17 godziny i 20 minut temu, godzina 14:00 UTC
Prognoza ważna od 24 godzina 15 UTC do 25 godzina 15 UTC
Wiatr 3 kt z kierunków zmiennych
Widzialność 10 km lub więcej
Brak chmur poniżej 1500 m i brak chmur cumulonimbus
Przejściowo
od 24 godzina 15 UTC do 24 godzina 18 UTC
Wiatr 8 kt od południowo-południowy zachód
Przejściowo
od 25 godzina 12 UTC do 25 godzina 15 UTC
Wiatr 10 kt od północny zachód

TAF: LESU 241400Z 2415/2515 VRB03KT CAVOK TX18/2514Z TNM01/2506Z TEMPO 2415/2418 20008KT TEMPO 2512/2515 32010KT

Obserwacja i prognoza pogody dla ponad 4000 lotnisk (raport METAR i TAF).

Dostępne stacje oznaczono żółtymi i czerwonymi punktami na mapie.

Najedź kursorem aby zobaczyć nazwę stacji.

Kliknij aby zobaczyć obserwacje i prognozy pogody.

Aby zmienić mapę: kliknij na zielony przycisk z czarnym krzyżykiem, aby powiększyć; na zielony przycisk z myślnikiem, aby pomniejszyć; na zielone strzałki, aby przejść do map sąsiednich.


METAR-TAF: